createdAt,value
2023-03-22T00:02:26.162Z,90.79
2023-03-22T00:04:56.458Z,90.94
2023-03-22T00:07:25.125Z,90.72
2023-03-22T00:09:53.526Z,90.70
2023-03-22T00:12:21.942Z,90.80
2023-03-22T00:14:50.510Z,90.70
2023-03-22T00:17:18.898Z,90.59
2023-03-22T00:19:47.420Z,90.38
2023-03-22T00:22:17.209Z,90.20
2023-03-22T00:24:45.821Z,89.67
2023-03-22T00:27:14.649Z,89.70
2023-03-22T00:29:43.419Z,89.78
2023-03-22T00:32:11.798Z,89.65
2023-03-22T00:34:40.340Z,89.62
2023-03-22T00:37:09.081Z,89.59
2023-03-22T00:39:39.065Z,89.56
2023-03-22T00:42:08.159Z,89.21
2023-03-22T00:44:36.449Z,89.04
2023-03-22T00:47:05.074Z,89.00
2023-03-22T00:49:35.118Z,89.43
2023-03-22T00:52:03.473Z,89.46
2023-03-22T00:54:31.774Z,89.64
2023-03-22T00:57:01.437Z,89.52
2023-03-22T00:59:30.327Z,89.39
2023-03-22T01:01:59.118Z,89.63
2023-03-22T01:04:27.917Z,89.63
2023-03-22T01:06:59.263Z,89.21
2023-03-22T01:09:30.843Z,88.99
2023-03-22T01:12:02.416Z,89.01
2023-03-22T01:14:31.731Z,88.94
2023-03-22T01:17:00.432Z,88.57
2023-03-22T01:19:28.919Z,88.26
2023-03-22T01:21:58.096Z,88.28
2023-03-22T01:24:26.692Z,88.13
2023-03-22T01:26:55.157Z,87.88
2023-03-22T01:29:25.092Z,87.66
2023-03-22T01:31:54.170Z,87.63
2023-03-22T01:34:22.884Z,87.29
2023-03-22T01:36:51.845Z,87.34
2023-03-22T01:39:20.560Z,87.50
2023-03-22T01:41:51.749Z,88.07
2023-03-22T01:44:24.644Z,88.84
2023-03-22T01:46:55.803Z,89.25
2023-03-22T01:49:29.839Z,89.73
2023-03-22T01:52:03.932Z,90.10
2023-03-22T01:55:01.817Z,90.70
2023-03-22T01:57:44.879Z,91.08
2023-03-22T02:00:20.627Z,91.65
2023-03-22T02:03:09.433Z,91.86
2023-03-22T02:05:44.871Z,91.99
2023-03-22T02:08:15.196Z,92.05
2023-03-22T02:11:00.597Z,91.77
2023-03-22T02:14:00.750Z,92.01
2023-03-22T02:17:20.699Z,91.97
2023-03-22T02:21:03.950Z,91.90
2023-03-22T02:24:11.823Z,92.19
2023-03-22T02:27:31.200Z,92.40
2023-03-22T02:30:32.273Z,92.10
2023-03-22T02:33:35.817Z,91.53
2023-03-22T02:36:42.856Z,91.68
2023-03-22T02:39:25.554Z,91.68
2023-03-22T02:42:10.947Z,91.82
2023-03-22T02:44:44.273Z,91.89
2023-03-22T02:47:23.478Z,91.51
2023-03-22T02:50:00.343Z,91.69
2023-03-22T02:52:35.985Z,91.73
2023-03-22T02:55:12.821Z,91.77
2023-03-22T02:57:48.335Z,91.90
2023-03-22T03:00:19.485Z,92.16
2023-03-22T03:02:52.384Z,92.21
2023-03-22T03:05:22.875Z,92.32
2023-03-22T03:07:58.441Z,92.54
2023-03-22T03:10:29.013Z,92.84
2023-03-22T03:12:57.357Z,93.01
2023-03-22T03:15:25.962Z,93.22
2023-03-22T03:18:26.377Z,93.35
2023-03-22T03:21:04.399Z,93.76
2023-03-22T03:23:43.206Z,93.70
2023-03-22T03:26:25.108Z,93.94
2023-03-22T03:29:00.670Z,94.29
2023-03-22T03:31:36.408Z,93.97
2023-03-22T03:34:14.971Z,94.09
2023-03-22T03:36:52.322Z,93.72
2023-03-22T03:39:23.521Z,93.85
2023-03-22T03:41:57.722Z,93.86
2023-03-22T03:44:28.465Z,94.35
2023-03-22T03:46:57.480Z,94.48
2023-03-22T03:49:27.133Z,94.70
2023-03-22T03:51:57.272Z,94.69
2023-03-22T03:54:26.000Z,94.28
2023-03-22T03:56:56.015Z,94.65
2023-03-22T03:59:24.399Z,94.47
2023-03-22T04:01:54.274Z,94.37
2023-03-22T04:04:29.803Z,94.67
2023-03-22T04:07:06.094Z,94.58
2023-03-22T04:09:40.406Z,94.80
2023-03-22T04:12:18.571Z,95.03
2023-03-22T04:15:06.926Z,94.80
2023-03-22T04:17:36.005Z,94.92
2023-03-22T04:20:06.173Z,95.12
2023-03-22T04:22:38.345Z,94.98
2023-03-22T04:25:11.758Z,94.70
2023-03-22T04:27:47.232Z,94.34
2023-03-22T04:30:18.892Z,94.33
2023-03-22T04:32:59.099Z,94.19
2023-03-22T04:35:40.098Z,94.15
2023-03-22T04:38:09.748Z,93.84
2023-03-22T04:40:38.867Z,93.82
2023-03-22T04:43:19.633Z,93.90
2023-03-22T04:45:58.256Z,93.58
2023-03-22T04:48:32.545Z,93.67
2023-03-22T04:51:04.139Z,93.43
2023-03-22T04:53:39.473Z,93.47
2023-03-22T04:56:11.790Z,93.32
2023-03-22T04:58:43.592Z,93.12
2023-03-22T05:01:14.013Z,93.16
2023-03-22T05:03:47.369Z,92.96
2023-03-22T05:06:18.362Z,92.50
2023-03-22T05:09:05.985Z,92.83
2023-03-22T05:11:34.578Z,92.58
2023-03-22T05:14:30.527Z,92.18
2023-03-22T05:16:58.986Z,92.02
2023-03-22T05:19:27.833Z,91.79
2023-03-22T05:21:58.545Z,91.86
2023-03-22T05:24:39.765Z,91.58
2023-03-22T05:27:14.198Z,91.30
2023-03-22T05:29:45.244Z,91.27
2023-03-22T05:32:25.784Z,91.48
2023-03-22T05:34:57.028Z,91.70
2023-03-22T05:37:32.849Z,91.50
2023-03-22T05:40:01.701Z,91.19
2023-03-22T05:42:37.551Z,91.27
2023-03-22T05:45:17.135Z,91.49
2023-03-22T05:47:49.750Z,91.18
2023-03-22T05:50:24.030Z,91.23
2023-03-22T05:52:53.363Z,90.88
2023-03-22T05:55:44.894Z,91.10
2023-03-22T05:58:18.949Z,90.95
2023-03-22T06:00:51.421Z,90.95
2023-03-22T06:03:22.380Z,91.06
2023-03-22T06:05:56.946Z,91.16
2023-03-22T06:08:41.575Z,91.44
2023-03-22T06:11:10.303Z,91.48
2023-03-22T06:13:38.961Z,91.68
2023-03-22T06:16:11.158Z,91.77
2023-03-22T06:18:39.740Z,91.68
2023-03-22T06:21:12.062Z,91.62
2023-03-22T06:23:40.501Z,91.56
2023-03-22T06:26:11.367Z,91.57
2023-03-22T06:28:40.769Z,91.83
2023-03-22T06:31:11.466Z,91.86
2023-03-22T06:33:59.378Z,91.62
2023-03-22T06:36:48.029Z,91.82
2023-03-22T06:39:29.528Z,91.66
2023-03-22T06:41:57.922Z,92.12
2023-03-22T06:44:26.470Z,92.44
2023-03-22T06:47:08.858Z,92.44
2023-03-22T06:49:53.862Z,92.66
2023-03-22T06:52:26.815Z,92.45
2023-03-22T06:54:56.779Z,92.20
2023-03-22T06:57:25.987Z,92.20
2023-03-22T06:59:54.520Z,92.05
2023-03-22T07:02:24.362Z,92.07
2023-03-22T07:05:14.309Z,91.56
2023-03-22T07:07:43.546Z,91.47
2023-03-22T07:10:12.057Z,91.82
2023-03-22T07:12:40.606Z,91.60
2023-03-22T07:15:13.597Z,91.39
2023-03-22T07:18:02.844Z,91.57
2023-03-22T07:20:36.887Z,91.46
2023-03-22T07:23:05.878Z,91.39
2023-03-22T07:25:40.405Z,91.69
2023-03-22T07:28:23.092Z,91.65
2023-03-22T07:31:02.161Z,91.55
2023-03-22T07:33:35.508Z,91.92
2023-03-22T07:36:03.869Z,92.01
2023-03-22T07:38:32.238Z,92.42
2023-03-22T07:41:00.601Z,92.60
2023-03-22T07:43:54.028Z,92.94
2023-03-22T07:46:25.094Z,93.21
2023-03-22T07:49:33.075Z,94.38
2023-03-22T07:52:09.116Z,94.02
2023-03-22T07:54:37.424Z,94.70
2023-03-22T07:57:08.612Z,95.19
2023-03-22T07:59:43.504Z,95.35
2023-03-22T08:02:12.404Z,96.12
2023-03-22T08:04:53.174Z,96.60
2023-03-22T08:07:43.191Z,97.25
2023-03-22T08:10:13.071Z,97.45
2023-03-22T08:12:41.829Z,98.24
2023-03-22T08:15:22.865Z,98.97
2023-03-22T08:17:51.927Z,99.58
2023-03-22T08:20:32.772Z,99.93
2023-03-22T08:23:07.916Z,100.00
2023-03-22T08:25:59.352Z,100.00
2023-03-22T08:28:27.845Z,100.00
2023-03-22T08:30:56.177Z,100.00
2023-03-22T08:33:25.370Z,100.00
2023-03-22T08:36:08.499Z,100.00
2023-03-22T08:38:45.210Z,100.00
2023-03-22T08:41:16.106Z,100.00
2023-03-22T08:43:44.713Z,100.00
2023-03-22T08:46:13.206Z,100.00
2023-03-22T08:48:42.284Z,100.00
2023-03-22T08:51:27.672Z,100.00
2023-03-22T08:54:19.127Z,100.00
2023-03-22T08:57:09.447Z,100.00
2023-03-22T09:00:00.558Z,100.00
2023-03-22T09:02:45.339Z,100.00
2023-03-22T09:05:14.730Z,100.00
2023-03-22T09:07:45.600Z,100.00
2023-03-22T09:10:25.152Z,100.00
2023-03-22T09:12:53.725Z,100.00
2023-03-22T09:15:22.013Z,100.00
2023-03-22T09:18:04.967Z,100.00
2023-03-22T09:20:34.623Z,100.00
2023-03-22T09:23:05.313Z,100.00
2023-03-22T09:25:33.743Z,100.00
2023-03-22T09:28:02.466Z,100.00
2023-03-22T09:30:31.046Z,100.00
2023-03-22T09:32:59.452Z,100.00
2023-03-22T09:35:27.719Z,100.00
2023-03-22T09:38:06.556Z,100.00
2023-03-22T09:40:36.630Z,100.00
2023-03-22T09:43:09.103Z,100.00
2023-03-22T09:45:43.769Z,100.00
2023-03-22T09:48:18.280Z,100.00
2023-03-22T09:50:49.989Z,100.00
2023-03-22T09:53:21.237Z,100.00
2023-03-22T09:55:56.876Z,100.00
2023-03-22T09:58:32.912Z,100.00
2023-03-22T10:01:05.844Z,100.00
2023-03-22T10:04:14.315Z,100.00
2023-03-22T10:06:50.723Z,100.00
2023-03-22T10:09:30.557Z,100.00
2023-03-22T10:12:05.164Z,100.00
2023-03-22T10:14:41.341Z,100.00
2023-03-22T10:17:14.665Z,100.00
2023-03-22T10:19:53.433Z,100.00
2023-03-22T10:22:27.912Z,100.00
2023-03-22T10:24:58.626Z,100.00
2023-03-22T10:27:27.839Z,100.00
2023-03-22T10:30:02.164Z,100.00
2023-03-22T10:32:54.720Z,100.00
2023-03-22T10:35:27.291Z,100.00
2023-03-22T10:37:56.979Z,100.00
2023-03-22T10:40:31.575Z,100.00
2023-03-22T10:43:04.714Z,100.00
2023-03-22T10:45:36.191Z,100.00
2023-03-22T10:48:10.741Z,100.00
2023-03-22T10:50:43.448Z,100.00
2023-03-22T10:53:19.396Z,100.00
2023-03-22T10:55:49.200Z,100.00
2023-03-22T10:58:19.871Z,100.00
2023-03-22T11:00:49.527Z,100.00
2023-03-22T11:03:31.825Z,100.00
2023-03-22T11:06:08.754Z,100.00
2023-03-22T11:08:45.633Z,100.00
2023-03-22T11:11:23.394Z,100.00
2023-03-22T11:14:04.308Z,100.00
2023-03-22T11:16:34.048Z,100.00
2023-03-22T11:19:04.028Z,100.00
2023-03-22T11:21:34.455Z,100.00
2023-03-22T11:24:06.920Z,100.00
2023-03-22T11:26:41.373Z,100.00
2023-03-22T11:29:17.988Z,100.00
2023-03-22T11:31:57.186Z,100.00
2023-03-22T11:34:29.446Z,100.00
2023-03-22T11:37:01.292Z,100.00
2023-03-22T11:39:31.048Z,100.00
2023-03-22T11:42:03.969Z,100.00
2023-03-22T11:44:35.931Z,100.00
2023-03-22T11:47:08.957Z,100.00
2023-03-22T11:49:46.453Z,100.00
2023-03-22T11:52:20.012Z,100.00
2023-03-22T11:54:49.020Z,100.00
2023-03-22T11:57:23.004Z,100.00
2023-03-22T11:59:59.547Z,99.93
2023-03-22T12:02:31.690Z,99.48
2023-03-22T12:05:09.381Z,99.99
2023-03-22T12:07:39.636Z,100.00
2023-03-22T12:10:17.330Z,99.99
2023-03-22T12:12:52.346Z,100.00
2023-03-22T12:15:24.178Z,100.00
2023-03-22T12:17:58.266Z,100.00
2023-03-22T12:20:38.052Z,99.60
2023-03-22T12:23:16.299Z,99.75
2023-03-22T12:25:51.690Z,99.92
2023-03-22T12:28:26.514Z,99.35
2023-03-22T12:30:58.607Z,99.38
2023-03-22T12:33:30.992Z,99.13
2023-03-22T12:36:03.625Z,99.56
2023-03-22T12:38:39.246Z,99.68
2023-03-22T12:41:12.782Z,99.65
2023-03-22T12:43:50.024Z,99.54
2023-03-22T12:46:22.649Z,99.80
2023-03-22T12:48:54.394Z,99.14
2023-03-22T12:51:22.878Z,99.73
2023-03-22T12:53:54.898Z,99.08
2023-03-22T12:56:27.751Z,99.14
2023-03-22T12:59:01.192Z,99.05
2023-03-22T13:01:40.654Z,98.87
2023-03-22T13:04:32.669Z,98.56
2023-03-22T13:07:16.261Z,98.78
2023-03-22T13:09:46.602Z,98.51
2023-03-22T13:12:33.607Z,98.50
2023-03-22T13:15:41.301Z,98.73
2023-03-22T13:18:33.456Z,99.26
2023-03-22T13:21:14.436Z,98.93
2023-03-22T13:24:00.602Z,99.03
2023-03-22T13:26:45.710Z,98.52
2023-03-22T13:29:19.687Z,98.51
2023-03-22T13:31:58.680Z,98.14
2023-03-22T13:34:39.937Z,98.57
2023-03-22T13:37:25.308Z,98.29
2023-03-22T13:39:53.829Z,98.18
2023-03-22T13:42:24.973Z,98.47
2023-03-22T13:45:02.405Z,98.94
2023-03-22T13:47:35.935Z,98.66
2023-03-22T13:50:13.279Z,98.89
2023-03-22T13:52:44.884Z,99.19
2023-03-22T13:55:42.335Z,99.59
2023-03-22T13:58:12.929Z,99.21
2023-03-22T14:00:49.550Z,99.73
2023-03-22T14:03:28.557Z,99.36
2023-03-22T14:06:15.058Z,99.43
2023-03-22T14:08:45.514Z,99.87
2023-03-22T14:11:28.098Z,100.00
2023-03-22T14:14:02.070Z,100.00
2023-03-22T14:16:39.578Z,100.00
2023-03-22T14:19:17.951Z,100.00
